createdAt,value
2019-02-08T00:00:40.184Z,72.10
2019-02-08T00:03:45.377Z,72.30
2019-02-08T00:06:51.918Z,72.40
2019-02-08T00:09:56.993Z,72.20
2019-02-08T00:13:01.963Z,72.40
2019-02-08T00:16:07.095Z,72.40
2019-02-08T00:19:12.277Z,72.40
2019-02-08T00:22:17.411Z,72.80
2019-02-08T00:25:22.805Z,73.00
2019-02-08T00:28:27.811Z,73.00
2019-02-08T00:31:33.120Z,72.90
2019-02-08T00:34:38.242Z,73.20
2019-02-08T00:37:43.292Z,73.30
2019-02-08T00:40:48.437Z,73.30
2019-02-08T00:43:53.622Z,73.20
2019-02-08T00:46:58.943Z,73.20
2019-02-08T00:50:04.563Z,73.10
2019-02-08T00:53:09.489Z,73.00
2019-02-08T00:56:14.824Z,73.10
2019-02-08T00:59:19.958Z,73.20
2019-02-08T01:02:25.320Z,73.40
2019-02-08T01:05:30.600Z,73.50
2019-02-08T01:08:35.345Z,73.30
2019-02-08T01:11:40.451Z,73.50
2019-02-08T01:14:45.535Z,73.70
2019-02-08T01:17:50.758Z,74.00
2019-02-08T01:20:55.736Z,74.00
2019-02-08T01:24:00.956Z,74.10
2019-02-08T01:27:06.031Z,74.00
2019-02-08T01:30:14.285Z,74.00
2019-02-08T01:33:19.077Z,74.10
2019-02-08T01:36:24.047Z,74.00
2019-02-08T01:39:28.972Z,73.80
2019-02-08T01:42:34.113Z,73.80
2019-02-08T01:45:39.230Z,73.70
2019-02-08T01:48:44.201Z,73.80
2019-02-08T01:51:49.141Z,73.90
2019-02-08T01:54:54.190Z,73.80
2019-02-08T01:57:59.092Z,73.50
2019-02-08T02:01:04.068Z,73.70
2019-02-08T02:04:09.135Z,73.60
2019-02-08T02:07:14.728Z,73.70
2019-02-08T02:10:22.630Z,73.60
2019-02-08T02:13:27.726Z,73.60
2019-02-08T02:16:32.765Z,74.00
2019-02-08T02:19:37.774Z,74.10
2019-02-08T02:22:42.841Z,74.20
2019-02-08T02:25:47.928Z,74.40
2019-02-08T02:28:53.153Z,74.60
2019-02-08T02:31:58.104Z,75.30
2019-02-08T02:35:03.234Z,75.20
2019-02-08T02:38:08.701Z,75.20
2019-02-08T02:41:13.737Z,75.20
2019-02-08T02:44:18.881Z,75.20
2019-02-08T02:47:23.890Z,75.50
2019-02-08T02:50:29.472Z,75.60
2019-02-08T02:53:34.509Z,75.50
2019-02-08T02:56:39.618Z,75.20
2019-02-08T02:59:44.583Z,75.10
2019-02-08T03:02:49.517Z,75.50
2019-02-08T03:05:54.390Z,75.50
2019-02-08T03:08:59.532Z,75.80
2019-02-08T03:12:04.641Z,75.70
2019-02-08T03:15:10.797Z,75.90
2019-02-08T03:18:15.987Z,75.70
2019-02-08T03:21:20.983Z,75.40
2019-02-08T03:24:25.976Z,75.70
2019-02-08T03:27:31.120Z,75.90
2019-02-08T03:30:48.899Z,76.30
2019-02-08T03:33:54.008Z,76.20
2019-02-08T03:36:59.092Z,75.70
2019-02-08T03:40:05.922Z,75.40
2019-02-08T03:43:10.994Z,75.10
2019-02-08T03:46:16.031Z,75.10
2019-02-08T03:49:21.178Z,75.20
2019-02-08T03:52:26.126Z,75.30
2019-02-08T03:55:31.144Z,75.40
2019-02-08T03:58:36.481Z,75.20
2019-02-08T04:01:41.553Z,75.60
2019-02-08T04:04:46.671Z,75.70
2019-02-08T04:07:51.794Z,75.80
2019-02-08T04:10:56.789Z,75.90
2019-02-08T04:14:01.727Z,75.70
2019-02-08T04:17:06.814Z,75.40
2019-02-08T04:20:13.106Z,75.10
2019-02-08T04:23:19.682Z,75.20
2019-02-08T04:26:24.920Z,75.50
2019-02-08T04:29:29.836Z,75.80
2019-02-08T04:32:35.010Z,76.20
2019-02-08T04:35:39.943Z,76.00
2019-02-08T04:38:45.026Z,75.60
2019-02-08T04:41:50.017Z,75.80
2019-02-08T04:44:55.156Z,75.50
2019-02-08T04:48:00.307Z,75.60
2019-02-08T04:51:05.381Z,75.40
2019-02-08T04:54:10.287Z,75.00
2019-02-08T04:57:15.273Z,74.80
2019-02-08T05:00:40.909Z,74.70
2019-02-08T05:03:45.941Z,74.70
2019-02-08T05:06:50.926Z,74.70
2019-02-08T05:09:55.882Z,74.70
2019-02-08T05:13:01.135Z,74.70
2019-02-08T05:16:07.464Z,74.70
2019-02-08T05:19:12.399Z,74.60
2019-02-08T05:22:17.546Z,74.30
2019-02-08T05:25:23.011Z,74.50
2019-02-08T05:28:27.929Z,74.70
2019-02-08T05:31:32.910Z,74.60
2019-02-08T05:34:37.861Z,74.70
2019-02-08T05:37:42.905Z,74.90
2019-02-08T05:40:48.168Z,75.00
2019-02-08T05:43:53.080Z,74.90
2019-02-08T05:46:57.984Z,75.70
2019-02-08T05:50:02.939Z,74.70
2019-02-08T05:53:07.937Z,74.70
2019-02-08T05:56:13.066Z,74.60
2019-02-08T05:59:18.111Z,74.90
2019-02-08T06:02:23.358Z,75.30
2019-02-08T06:05:28.698Z,75.50
2019-02-08T06:08:33.687Z,75.40
2019-02-08T06:11:38.800Z,75.70
2019-02-08T06:14:43.666Z,75.90
2019-02-08T06:17:48.541Z,75.60
2019-02-08T06:20:53.604Z,75.70
2019-02-08T06:23:58.608Z,75.60
2019-02-08T06:27:03.583Z,75.20
2019-02-08T06:30:10.569Z,75.00
2019-02-08T06:33:15.667Z,75.10
2019-02-08T06:36:20.735Z,75.00
2019-02-08T06:39:25.891Z,74.90
2019-02-08T06:42:30.855Z,75.00
2019-02-08T06:45:35.942Z,75.20
2019-02-08T06:48:41.353Z,75.10
2019-02-08T06:51:46.604Z,75.20
2019-02-08T06:54:51.488Z,75.20
2019-02-08T06:58:33.883Z,74.80
2019-02-08T07:01:52.456Z,74.70
2019-02-08T07:05:16.098Z,74.30
2019-02-08T07:08:40.035Z,74.50
2019-02-08T07:12:10.781Z,76.10
2019-02-08T07:15:34.795Z,78.40
2019-02-08T07:18:48.028Z,78.30
2019-02-08T07:22:09.587Z,76.20
2019-02-08T07:25:28.907Z,75.90
2019-02-08T07:29:07.747Z,74.00
2019-02-08T07:32:30.427Z,73.20
2019-02-08T07:36:10.556Z,72.50
2019-02-08T07:39:35.302Z,71.70
2019-02-08T07:42:59.696Z,71.60
2019-02-08T07:46:29.022Z,71.50
2019-02-08T07:50:04.133Z,70.80
2019-02-08T07:53:30.886Z,70.60
2019-02-08T07:57:06.976Z,70.50
2019-02-08T08:00:33.785Z,70.50
2019-02-08T08:04:01.273Z,69.80
2019-02-08T08:07:21.909Z,70.00
2019-02-08T08:10:55.281Z,69.60
2019-02-08T08:14:17.889Z,69.70
2019-02-08T08:17:44.916Z,69.80
2019-02-08T08:21:09.056Z,69.70
2019-02-08T08:24:51.789Z,69.70
2019-02-08T08:28:10.184Z,69.70
2019-02-08T08:31:23.958Z,70.10
2019-02-08T08:35:02.190Z,70.00
2019-02-08T08:38:32.713Z,69.70
2019-02-08T08:42:10.797Z,69.70
2019-02-08T08:45:46.014Z,69.80
2019-02-08T08:49:31.516Z,70.20
2019-02-08T08:53:00.208Z,70.00
2019-02-08T08:56:44.929Z,69.50
2019-02-08T09:00:32.999Z,68.80
2019-02-08T09:04:20.971Z,68.30
2019-02-08T09:08:11.546Z,67.40
2019-02-08T09:11:45.824Z,66.10
2019-02-08T09:15:27.364Z,64.90
2019-02-08T09:19:14.930Z,62.60
2019-02-08T09:23:11.527Z,60.00
2019-02-08T09:27:04.957Z,60.10
2019-02-08T09:30:43.482Z,59.30
2019-02-08T09:34:40.434Z,59.40
2019-02-08T09:38:38.058Z,59.00
2019-02-08T09:42:06.113Z,57.70
2019-02-08T09:45:47.487Z,57.80
2019-02-08T09:49:17.787Z,57.60
2019-02-08T09:52:54.534Z,58.00
2019-02-08T09:56:50.016Z,51.70
2019-02-08T10:00:10.537Z,39.40
2019-02-08T10:03:36.293Z,30.40
2019-02-08T10:07:08.745Z,25.80
2019-02-08T10:10:58.926Z,22.70
2019-02-08T10:14:54.890Z,20.50
2019-02-08T10:18:49.537Z,18.20
2019-02-08T10:22:41.066Z,16.50
2019-02-08T10:26:23.681Z,15.50
2019-02-08T10:30:08.125Z,14.80
2019-02-08T10:33:48.843Z,14.20
2019-02-08T10:37:45.200Z,13.80
2019-02-08T10:41:46.242Z,13.40
2019-02-08T10:45:27.645Z,13.00
2019-02-08T10:49:28.695Z,12.70
2019-02-08T10:53:20.634Z,12.40
2019-02-08T10:57:02.099Z,12.40
2019-02-08T11:00:36.769Z,12.40
2019-02-08T11:04:27.367Z,12.10
2019-02-08T11:08:46.273Z,11.90
2019-02-08T11:12:29.050Z,11.70
2019-02-08T11:16:19.056Z,11.50
2019-02-08T11:19:25.449Z,11.80
2019-02-08T11:22:30.775Z,11.40
2019-02-08T11:25:35.721Z,11.30
2019-02-08T11:28:40.685Z,11.20
2019-02-08T11:31:45.800Z,11.00
2019-02-08T11:34:51.205Z,10.70
2019-02-08T11:37:56.176Z,10.50
2019-02-08T11:41:01.320Z,10.30
2019-02-08T11:44:06.437Z,11.50
2019-02-08T11:47:11.544Z,10.70
2019-02-08T11:50:18.393Z,11.50
2019-02-08T11:53:23.392Z,10.80
2019-02-08T11:56:30.106Z,10.80
2019-02-08T11:59:35.575Z,10.60
2019-02-08T12:02:40.763Z,10.80
2019-02-08T12:05:46.170Z,10.70
2019-02-08T12:08:51.203Z,11.30
2019-02-08T12:11:56.142Z,11.70
2019-02-08T12:15:01.644Z,11.40
2019-02-08T12:18:08.224Z,11.20
2019-02-08T12:21:13.212Z,10.80
2019-02-08T12:24:18.177Z,11.20
2019-02-08T12:27:23.463Z,11.40
2019-02-08T12:30:31.554Z,11.50
2019-02-08T12:33:36.718Z,11.50
2019-02-08T12:36:41.799Z,11.20
2019-02-08T12:39:46.629Z,11.50
2019-02-08T12:42:51.659Z,11.60
2019-02-08T12:45:56.783Z,11.50
2019-02-08T12:49:01.976Z,12.20
2019-02-08T12:52:07.070Z,12.20
2019-02-08T12:55:12.641Z,12.60
2019-02-08T12:58:17.629Z,13.20
2019-02-08T13:01:22.902Z,13.30
2019-02-08T13:04:28.028Z,14.20
2019-02-08T13:07:33.378Z,13.90
2019-02-08T13:10:38.506Z,14.30
2019-02-08T13:13:43.384Z,14.30
2019-02-08T13:16:48.458Z,13.70
2019-02-08T13:19:53.574Z,13.90
2019-02-08T13:22:58.565Z,14.40
2019-02-08T13:26:03.625Z,13.90
2019-02-08T13:29:08.774Z,14.20
2019-02-08T13:32:13.823Z,13.90
2019-02-08T13:35:18.850Z,14.00
2019-02-08T13:38:23.999Z,13.80
2019-02-08T13:41:28.938Z,13.50
2019-02-08T13:44:34.096Z,14.00
2019-02-08T13:47:39.191Z,14.20
2019-02-08T13:50:44.148Z,14.10
2019-02-08T13:53:49.222Z,13.80
2019-02-08T13:57:00.555Z,14.00
2019-02-08T14:00:00.935Z,14.10
2019-02-08T14:03:07.081Z,14.50
2019-02-08T14:06:12.473Z,15.00
2019-02-08T14:09:18.298Z,15.10
2019-02-08T14:12:26.100Z,16.00
2019-02-08T14:15:31.779Z,16.70
2019-02-08T14:18:36.774Z,17.20
2019-02-08T14:21:41.650Z,18.20
2019-02-08T14:24:46.784Z,20.70
2019-02-08T14:27:51.950Z,22.40
2019-02-08T14:30:57.085Z,23.70
2019-02-08T14:34:02.179Z,25.40
2019-02-08T14:37:07.711Z,26.40
2019-02-08T14:40:15.648Z,27.70
2019-02-08T14:43:20.959Z,29.00
2019-02-08T14:46:25.960Z,30.00
2019-02-08T14:49:31.277Z,31.40
2019-02-08T14:52:36.616Z,32.40
2019-02-08T14:55:41.866Z,33.20
2019-02-08T14:58:47.070Z,33.90
2019-02-08T15:01:52.089Z,34.80
2019-02-08T15:04:57.158Z,35.80
2019-02-08T15:08:02.117Z,36.90
2019-02-08T15:11:07.293Z,37.80
2019-02-08T15:14:12.427Z,39.60
2019-02-08T15:17:17.839Z,40.50
2019-02-08T15:20:25.269Z,41.30
2019-02-08T15:23:30.213Z,42.30
2019-02-08T15:26:35.238Z,43.60
2019-02-08T15:29:40.246Z,44.20
2019-02-08T15:32:45.717Z,44.60
2019-02-08T15:35:50.864Z,44.80
2019-02-08T15:38:55.858Z,45.00
2019-02-08T15:42:00.919Z,45.40
2019-02-08T15:45:07.156Z,45.90
2019-02-08T15:48:12.180Z,46.20
2019-02-08T15:51:17.178Z,47.40
2019-02-08T15:54:22.120Z,48.40
2019-02-08T15:57:31.910Z,49.00
2019-02-08T16:00:33.932Z,49.50
2019-02-08T16:03:39.074Z,49.90
2019-02-08T16:06:44.265Z,50.30
2019-02-08T16:09:49.219Z,50.70
2019-02-08T16:12:54.129Z,51.00
2019-02-08T16:15:59.112Z,51.70
2019-02-08T16:19:04.093Z,52.00
2019-02-08T16:22:09.338Z,52.20
2019-02-08T16:25:14.604Z,52.60
2019-02-08T16:28:19.857Z,53.10
2019-02-08T16:31:25.306Z,52.80
2019-02-08T16:34:30.517Z,53.00
2019-02-08T16:37:35.715Z,53.10
2019-02-08T16:40:40.621Z,53.40
2019-02-08T16:43:45.625Z,53.50
2019-02-08T16:46:50.736Z,53.70
2019-02-08T16:49:55.902Z,54.10
2019-02-08T16:53:01.299Z,54.30
2019-02-08T16:56:25.199Z,54.30
2019-02-08T16:59:30.365Z,54.00
2019-02-08T17:02:36.077Z,54.50
2019-02-08T17:05:41.445Z,55.00
2019-02-08T17:08:46.589Z,55.20
2019-02-08T17:11:52.694Z,55.40
2019-02-08T17:14:57.706Z,55.70
2019-02-08T17:18:02.763Z,55.80
2019-02-08T17:21:07.944Z,56.10
2019-02-08T17:24:12.969Z,56.10
2019-02-08T17:27:18.223Z,56.10
2019-02-08T17:30:23.550Z,56.00
2019-02-08T17:33:28.449Z,56.00
2019-02-08T17:36:33.717Z,55.90
2019-02-08T17:39:38.717Z,56.10
2019-02-08T17:42:43.757Z,56.30
2019-02-08T17:45:48.698Z,56.50
2019-02-08T17:48:53.873Z,56.60
2019-02-08T17:51:58.968Z,56.70
2019-02-08T17:55:04.822Z,56.80
2019-02-08T17:58:09.708Z,56.90
2019-02-08T18:01:14.466Z,57.00
2019-02-08T18:04:19.218Z,57.40
2019-02-08T18:07:23.982Z,57.60
2019-02-08T18:10:29.265Z,58.00
2019-02-08T18:13:34.385Z,58.20
2019-02-08T18:16:39.205Z,58.10
2019-02-08T18:19:44.258Z,58.30
2019-02-08T18:22:49.231Z,58.50
2019-02-08T18:25:54.280Z,58.50
2019-02-08T18:28:59.325Z,59.00
2019-02-08T18:32:04.700Z,59.10
2019-02-08T18:35:09.879Z,59.30
2019-02-08T18:38:14.687Z,59.50
2019-02-08T18:41:19.804Z,59.70
2019-02-08T18:44:24.776Z,60.00
2019-02-08T18:47:29.638Z,60.50
2019-02-08T18:50:40.448Z,61.00
2019-02-08T18:53:45.417Z,61.00
2019-02-08T18:56:53.387Z,61.20
2019-02-08T18:59:58.662Z,61.40
2019-02-08T19:03:03.548Z,61.40
2019-02-08T19:06:08.518Z,61.80
2019-02-08T19:09:13.530Z,61.80
2019-02-08T19:12:18.677Z,62.20
2019-02-08T19:15:24.065Z,62.40
2019-02-08T19:18:29.134Z,62.80
2019-02-08T19:21:34.116Z,63.10
2019-02-08T19:24:39.129Z,63.10
2019-02-08T19:27:44.134Z,63.90
2019-02-08T19:30:49.057Z,64.40
2019-02-08T19:33:54.106Z,64.80
2019-02-08T19:36:59.085Z,66.00
2019-02-08T19:40:05.731Z,66.20
2019-02-08T19:43:10.783Z,65.90
2019-02-08T19:46:15.829Z,66.30
2019-02-08T19:49:20.840Z,66.30
2019-02-08T19:52:26.207Z,66.20
2019-02-08T19:55:31.342Z,66.10
2019-02-08T19:58:36.465Z,66.20
2019-02-08T20:01:41.706Z,66.20
2019-02-08T20:04:46.790Z,66.50
2019-02-08T20:07:52.501Z,66.80
2019-02-08T20:10:57.748Z,66.70
2019-02-08T20:14:06.530Z,66.90
2019-02-08T20:17:11.696Z,66.70
2019-02-08T20:20:17.368Z,67.20
2019-02-08T20:23:22.598Z,67.40
2019-02-08T20:26:28.138Z,67.50
2019-02-08T20:29:33.172Z,67.50
2019-02-08T20:32:38.230Z,67.70
2019-02-08T20:35:43.399Z,67.90
2019-02-08T20:38:48.440Z,68.30
2019-02-08T20:41:53.513Z,68.80
2019-02-08T20:44:58.501Z,68.80
2019-02-08T20:48:05.840Z,69.50
2019-02-08T20:51:10.848Z,69.90
2019-02-08T20:54:15.971Z,69.70
2019-02-08T20:57:21.893Z,69.80
2019-02-08T21:00:35.562Z,70.60
2019-02-08T21:03:40.524Z,70.50
2019-02-08T21:06:45.709Z,70.40
2019-02-08T21:09:50.825Z,70.60
2019-02-08T21:12:56.091Z,70.70
2019-02-08T21:16:01.166Z,71.10
2019-02-08T21:19:06.326Z,71.30
2019-02-08T21:22:11.657Z,71.30
2019-02-08T21:25:19.955Z,71.20
2019-02-08T21:28:24.903Z,70.80
2019-02-08T21:31:29.804Z,70.90
2019-02-08T21:34:35.894Z,70.90
2019-02-08T21:37:41.139Z,70.90
2019-02-08T21:40:46.603Z,70.80
2019-02-08T21:43:51.824Z,70.70
2019-02-08T21:46:56.728Z,70.70
2019-02-08T21:50:01.682Z,70.70
2019-02-08T21:53:06.879Z,70.70
2019-02-08T21:56:11.904Z,70.80
2019-02-08T21:59:17.156Z,70.80
2019-02-08T22:02:22.187Z,70.90
2019-02-08T22:05:29.505Z,71.10
2019-02-08T22:08:34.630Z,71.00
2019-02-08T22:11:40.046Z,71.20
2019-02-08T22:14:44.906Z,71.10
2019-02-08T22:17:49.965Z,71.00
2019-02-08T22:20:55.161Z,71.00
2019-02-08T22:24:00.125Z,70.80
2019-02-08T22:27:05.130Z,71.30
2019-02-08T22:30:13.793Z,71.30
2019-02-08T22:33:18.746Z,71.70
2019-02-08T22:36:23.866Z,72.00
2019-02-08T22:39:29.027Z,72.10
2019-02-08T22:42:33.977Z,72.20
2019-02-08T22:45:40.541Z,72.60
2019-02-08T22:48:45.461Z,72.70
2019-02-08T22:51:50.392Z,72.60
2019-02-08T22:54:55.349Z,72.60
2019-02-08T22:58:00.660Z,72.50
2019-02-08T23:01:33.572Z,72.20
2019-02-08T23:04:38.393Z,72.20
2019-02-08T23:07:43.427Z,72.10
2019-02-08T23:10:48.543Z,72.20
2019-02-08T23:13:53.629Z,72.50
2019-02-08T23:16:58.713Z,73.10
2019-02-08T23:20:04.106Z,73.00
2019-02-08T23:23:09.515Z,73.40
2019-02-08T23:26:14.682Z,73.60
2019-02-08T23:29:19.608Z,73.70
2019-02-08T23:32:24.856Z,73.40
2019-02-08T23:35:30.276Z,73.40
2019-02-08T23:38:35.396Z,73.20
2019-02-08T23:41:40.690Z,73.70
2019-02-08T23:44:45.657Z,73.70
2019-02-08T23:47:50.756Z,73.50
2019-02-08T23:50:55.728Z,73.60
2019-02-08T23:54:00.673Z,73.40
2019-02-08T23:57:05.602Z,73.50
